Nashville, TN (37214)

11:24 AM CST on December 18, 2014 (GMT -0600)
Nashville International | Change Station
CLOSE
Current Station
Airport
Location: Nashville,
Elevation: 597 ft
Nearby Weather Stations

Elev 597 ft 36.12 °N, 86.69 °W | Updated 31 minutes ago

Overcast
Overcast
36 °F
Feels Like 33 °F
N
4
Wind Variable Wind from North

Today
High -- | Low -- °F
--% Chance of Precip.
Yesterday
High -- | Low -- °F
Precip. -- in
6:52 AM 4:34 PM
Waning Crescent, 13% visible
Pressure 30.26 in
Visibility 6.0 miles
Clouds Mostly Cloudy 1000 ft
Mostly Cloudy 4000 ft
Overcast 5500 ft
Windchill 33 °F
Dew Point 32 °F
Humidity 86%
Rainfall 0.11 in
Snow Depth Not available.
UV 1 out of 12
Pollen .10 out of 12
Air Quality Not available.
Flu Activity Not available.
METAR KBNA 181653Z 36003KT 6SM BR BKN010 BKN040 OVC055 02/00 A3024 RMK AO2 SLP246 T00220000

More Conditions Fewer Conditions

Pressure 30.26 in
Visibility 6.0 miles
Clouds Mostly Cloudy 1000 ft
Mostly Cloudy 4000 ft
Overcast 5500 ft
Windchill 33 °F
Dew Point 32 °F
Humidity 86%
Rainfall 0.11 in
Snow Depth Not available.
UV 1 out of 12
Pollen .10 out of 12
Air Quality Not available.
Flu Activity Not available.
METAR KBNA 181653Z 36003KT 6SM BR BKN010 BKN040 OVC055 02/00 A3024 RMK AO2 SLP246 T00220000

More Conditions Fewer Conditions

10-Day Weather Forecast

Almanac

Astronomy

Dec. 18, 2014 Rise Set
Actual Time
Civil Twilight
Nautical Twilight
Astronomical Twilight
Moon
Length of Visible Light
Length of Day
Tomorrow will be .
, % of the Moon is Illuminated

Today's Extremes

State Highs State Lows

Community

WunderPhotos

Upload Photos

1,778,964 photos uploaded!

WunderBlogs® & News

Nearby

Air Quality

  Air Quality AQ Index Pollutant
Not available.

Snow Depth

Station Depth Elevation

Earthquake Activity

City Distance Mag. Time & Date
Minimum magnitude displayed is 2.5.

Coastal Water Temperatures

Place Temperature

Nearby Weather Stations